Data for 05/28/2007

Time Sea-Level Adjusted Pressure Absolute Pressure Temperature Relative Humidity Dew Point   
(mb) (inHg) (mb) (inHg) (C) (F) (%) (C) (F)
00:05 1014 29.94 843 24.89 9 48.2 91 7.6 45.7
00:10 1013 29.91 843 24.89 8.9 48.1 92 7.7 45.8
00:15 1014 29.94 843 24.89 8.9 48 92 7.7 45.8
00:20 1013 29.91 843 24.89 8.9 47.9 92 7.7 45.8
00:25 1013 29.91 843 24.89 8.9 48.1 93 7.9 46.2
00:30 1014 29.94 843 24.89 9.2 48.5 92 8 46.3
00:35 1014 29.94 843 24.89 9.3 48.8 91 8 46.4
00:40 1014 29.94 843 24.89 9.4 48.9 91 8 46.4
00:45 1014 29.94 843 24.89 9.4 48.9 91 8 46.4
00:50 1014 29.94 843 24.89 9.5 49 90 8 46.3
00:55 1014 29.94 843 24.89 9.5 49 91 8.1 46.6
01:00 1014 29.94 843 24.89 9.5 49 91 8.1 46.6
01:05 1014 29.94 843 24.89 9.5 49.1 91 8.1 46.5
01:10 1014 29.94 843 24.89 9.5 49 90 7.9 46.2
01:15 1014 29.94 843 24.89 9.4 48.9 89 7.7 45.8
01:20 1014 29.94 843 24.89 9.3 48.7 90 7.7 45.9
01:25 1013 29.91 843 24.89 9.2 48.5 92 7.9 46.2
01:30 1013 29.91 843 24.89 9 48.3 92 7.8 46.1
01:35 1013 29.91 843 24.89 9 48.1 91 7.6 45.6
01:40 1013 29.91 843 24.89 9 48.2 91 7.6 45.6
01:45 1013 29.91 843 24.89 9 48.3 91 7.6 45.7
01:50 1013 29.91 843 24.89 9 48.3 90 7.5 45.6
01:55 1013 29.91 842 24.86 9 48.3 90 7.5 45.4
02:00 1013 29.91 842 24.86 9.1 48.3 91 7.6 45.7
02:05 1013 29.91 842 24.86 9.2 48.5 90 7.7 45.9
02:10 1013 29.91 842 24.86 9.2 48.5 90 7.6 45.7
02:15 1013 29.91 842 24.86 9.1 48.4 91 7.7 45.8
02:20 1013 29.91 842 24.86 9.1 48.4 91 7.7 45.9
02:25 1013 29.91 842 24.86 9.2 48.5 91 7.7 45.9
02:30 1013 29.91 842 24.86 9.2 48.5 91 7.8 46
02:35 1013 29.91 842 24.86 9.1 48.4 91 7.7 45.9
02:40 1013 29.91 842 24.86 9.1 48.4 91 7.8 46
02:45 1013 29.91 842 24.86 9.1 48.3 92 7.8 46.1
02:50 1013 29.91 842 24.86 9 48.2 92 7.8 46
02:55 1013 29.91 842 24.86 9 48.2 92 7.8 46
03:00 1013 29.91 842 24.86 8.9 48.1 93 7.8 46
03:05 1013 29.91 842 24.86 8.8 47.9 93 7.7 45.9
03:10 1013 29.91 842 24.86 8.7 47.7 93 7.6 45.7
03:15 1013 29.91 842 24.86 8.4 47.1 94 7.4 45.4
03:20 1013 29.91 842 24.86 8.1 46.6 96 7.5 45.4
03:25 1013 29.91 842 24.86 8.2 46.7 96 7.5 45.5
03:30 1013 29.91 842 24.86 8.1 46.7 95 7.4 45.4
03:35 1013 29.91 842 24.86 8.2 46.7 95 7.5 45.5
03:40 1013 29.91 842 24.86 8.2 46.7 95 7.5 45.5
03:45 1013 29.91 842 24.86 8.2 46.8 95 7.5 45.5
03:50 1013 29.91 842 24.86 8.3 47 95 7.6 45.6
03:55 1013 29.91 842 24.86 8.2 46.7 95 7.4 45.3
04:00 1013 29.91 842 24.86 8.1 46.5 95 7.2 45
04:05 1013 29.91 842 24.86 7.9 46.3 95 7.2 44.9
04:10 1013 29.91 842 24.86 7.9 46.1 95 7.2 44.9
04:15 1013 29.91 842 24.86 7.9 46.2 95 7.2 45
04:20 1013 29.91 842 24.86 7.9 46.2 96 7.3 45.1
04:25 1013 29.91 843 24.89 8 46.3 96 7.3 45.2
04:30 1013 29.91 843 24.89 7.9 46.2 96 7.3 45.1
04:35 1013 29.91 843 24.89 7.9 46.1 96 7.3 45.1
04:40 1013 29.91 843 24.89 8 46.3 96 7.3 45.2
04:45 1013 29.91 843 24.89 7.9 46.2 96 7.2 45
04:50 1013 29.91 842 24.86 7.8 46.1 95 7.2 44.9
04:55 1013 29.91 842 24.86 7.6 45.8 95 6.9 44.5
05:00 1013 29.91 842 24.86 7.4 45.4 97 6.9 44.5
05:05 1013 29.91 842 24.86 7.8 46 97 7.3 45.1
05:10 1013 29.91 842 24.86 7.9 46.3 96 7.4 45.3
05:15 1013 29.91 842 24.86 8 46.4 96 7.4 45.2
05:20 1013 29.91 842 24.86 8 46.5 95 7.3 45.2
05:25 1013 29.91 842 24.86 7.9 46.1 95 7.1 44.7
05:30 1013 29.91 842 24.86 7.6 45.7 95 6.9 44.5
05:35 1013 29.91 842 24.86 7.3 45.1 95 6.6 43.9
05:40 1013 29.91 842 24.86 7 44.6 97 6.5 43.6
05:45 1013 29.91 842 24.86 7.1 44.7 96 6.5 43.7
05:50 1013 29.91 842 24.86 6.8 44.2 96 6.1 43.1
05:55 1013 29.91 842 24.86 6.6 44 97 6.2 43.1
06:00 1013 29.91 842 24.86 6.8 44.3 96 6.3 43.3
06:05 1013 29.91 842 24.86 6.9 44.4 96 6.3 43.3
06:10 1013 29.91 842 24.86 6.9 44.5 96 6.3 43.4
06:15 1013 29.91 842 24.86 7.1 44.8 96 6.4 43.6
06:20 1013 29.91 842 24.86 7.2 44.9 94 6.3 43.4
06:25 1013 29.91 842 24.86 7.1 44.8 94 6.2 43.2
06:30 1013 29.91 842 24.86 7.2 45 93 6.2 43.1
06:35 1013 29.91 842 24.86 7.2 45 92 6 42.7
06:40 1013 29.91 842 24.86 6.9 44.4 93 5.8 42.4
06:45 1013 29.91 842 24.86 6.6 44 92 5.5 41.9
06:50 1013 29.91 842 24.86 6.6 43.9 93 5.5 41.9
06:55 1013 29.91 842 24.86 6.9 44.4 93 5.8 42.5
07:00 1013 29.91 842 24.86 7 44.6 94 6.1 42.9
07:05 1013 29.91 842 24.86 7.1 44.7 94 6.2 43.1
07:10 1013 29.91 842 24.86 7.3 45.1 93 6.2 43.2
07:15 1013 29.91 842 24.86 7.5 45.6 92 6.4 43.4
07:20 1013 29.91 842 24.86 7.6 45.6 92 6.4 43.5
07:25 1013 29.91 842 24.86 7.6 45.7 92 6.4 43.4
07:30 1013 29.91 842 24.86 7.6 45.6 92 6.4 43.4
07:35 1013 29.91 842 24.86 7.8 46 91 6.4 43.6
07:40 1013 29.91 842 24.86 7.9 46.1 90 6.4 43.5
07:45 1013 29.91 842 24.86 8 46.3 91 6.5 43.8
07:50 1013 29.91 842 24.86 8.1 46.5 91 6.6 44
07:55 1013 29.91 842 24.86 8.2 46.7 90 6.6 43.9
08:00 1013 29.91 842 24.86 8.3 47 88 6.5 43.7
08:05 1013 29.91 842 24.86 8.4 47.2 89 6.8 44.2
08:10 1013 29.91 842 24.86 8.8 47.8 87 6.6 44
08:15 1013 29.91 842 24.86 9 48.3 86 6.8 44.3
08:20 1013 29.91 842 24.86 9.5 49.2 84 7 44.6
08:25 1013 29.91 842 24.86 9.9 49.8 82 7 44.5
08:30 1013 29.91 842 24.86 10 50 83 7.2 44.9
08:35 1013 29.91 842 24.86 10.1 50.2 80 6.8 44.2
08:40 1013 29.91 842 24.86 10.2 50.3 81 7.1 44.8
08:45 1013 29.91 842 24.86 10.6 51 78 7 44.6
08:50 1013 29.91 842 24.86 10.4 50.8 82 7.5 45.5
08:55 1013 29.91 842 24.86 10.6 51.1 82 7.7 45.9
09:00 1013 29.91 842 24.86 10.5 50.9 82 7.6 45.7
09:05 1013 29.91 842 24.86 10.6 51.1 80 7.3 45.1
09:10 1013 29.91 842 24.86 11 51.8 78 7.3 45.1
09:15 1013 29.91 842 24.86 10.7 51.2 79 7.2 45
09:20 1013 29.91 842 24.86 10.7 51.2 78 6.9 44.5
09:25 1013 29.91 842 24.86 10.6 51.1 79 7.1 44.9
09:30 1013 29.91 842 24.86 10.5 50.9 78 6.8 44.3
09:35 1013 29.91 842 24.86 10.4 50.7 80 7.2 44.9
09:40 1013 29.91 842 24.86 11.2 52.2 77 7.3 45.2
09:45 1013 29.91 842 24.86 11.9 53.5 75 7.7 45.9
09:50 1013 29.91 843 24.89 12 53.6 76 7.9 46.3
09:55 1013 29.91 842 24.86 11.9 53.3 74 7.5 45.4
10:00 1013 29.91 842 24.86 11.7 53.1 75 7.4 45.2
10:05 1013 29.91 842 24.86 11.5 52.7 77 7.6 45.6
10:10 1013 29.91 843 24.89 11.5 52.7 77 7.7 45.8
10:15 1013 29.91 843 24.89 11.3 52.3 78 7.7 45.8
10:20 1013 29.91 842 24.86 11 51.8 79 7.5 45.5
10:25 1013 29.91 842 24.86 11.1 51.9 78 7.5 45.4
10:30 1013 29.91 842 24.86 11.1 51.9 79 7.6 45.8
10:35 1013 29.91 842 24.86 11.1 51.9 81 7.9 46.2
10:40 1013 29.91 842 24.86 11.2 52.1 79 7.6 45.7
10:45 1013 29.91 842 24.86 11.3 52.3 78 7.6 45.7
10:50 1013 29.91 842 24.86 11 51.7 79 7.5 45.5
10:55 1013 29.91 842 24.86 11.5 52.8 72 6.7 44.1
11:00 1013 29.91 842 24.86 11.9 53.5 68 6.2 43.2
11:05 1013 29.91 842 24.86 12.5 54.5 64 5.9 42.6
11:10 1013 29.91 842 24.86 12.5 54.5 65 6.1 42.9
11:15 1013 29.91 842 24.86 12.4 54.3 60 4.9 40.9
11:20 1013 29.91 842 24.86 12.5 54.5 58 4.5 40.2
11:25 1013 29.91 842 24.86 12.3 54.1 60 4.7 40.5
11:30 1013 29.91 842 24.86 12 53.5 63 5.3 41.5
11:35 1013 29.91 842 24.86 11.4 52.6 67 5.6 42.1
11:40 1013 29.91 842 24.86 10.9 51.7 67 5.2 41.3
11:45 1013 29.91 842 24.86 10.5 50.9 70 5.4 41.7
11:50 1014 29.94 843 24.89 10.2 50.4 74 5.8 42.4
11:55 1014 29.94 843 24.89 8.9 48.1 81 5.8 42.5
12:00 1014 29.94 843 24.89 7.8 46 85 5.5 41.9
12:05 1014 29.94 843 24.89 7.4 45.3 87 5.4 41.8
12:10 1014 29.94 843 24.89 7.1 44.8 88 5.3 41.6
12:15 1014 29.94 844 24.92 7 44.7 90 5.5 42
12:20 1015 29.97 844 24.92 6.9 44.5 91 5.5 42
12:25 1015 29.97 844 24.92 6.8 44.2 92 5.6 42.1
12:30 1015 29.97 844 24.92 6.7 44.1 93 5.7 42.2
12:35 1015 29.97 844 24.92 6.8 44.2 92 5.6 42.1
12:40 1015 29.97 844 24.92 6.7 44.1 93 5.7 42.2
12:45 1015 29.97 844 24.92 6.7 44.1 93 5.7 42.3
12:50 1015 29.97 845 24.95 6.6 43.9 93 5.5 41.9
12:55 1016 30 845 24.95 6.6 43.8 93 5.5 41.9
13:00 1016 30 845 24.95 6.6 43.8 92 5.4 41.7
13:05 1016 30 845 24.95 6.7 44 91 5.2 41.4
13:10 1016 30 845 24.95 6.3 43.3 89 4.6 40.3
13:15 1016 30 845 24.95 5.9 42.6 91 4.6 40.3
13:20 1016 30 845 24.95 5.7 42.3 91 4.4 40
13:25 1016 30 845 24.95 5.5 41.9 91 4.2 39.5
13:30 1016 30 846 24.98 5.5 41.9 89 3.9 39
13:35 1016 30 846 24.98 5.3 41.5 89 3.6 38.4
13:40 1017 30.03 846 24.98 5.2 41.4 89 3.6 38.5
13:45 1017 30.03 846 24.98 5.1 41.3 89 3.5 38.3
13:50 1017 30.03 846 24.98 5.1 41.2 88 3.3 38
13:55 1017 30.03 846 24.98 4.9 40.9 90 3.4 38.1
14:00 1017 30.03 846 24.98 4.9 40.8 89 3.2 37.8
14:05 1017 30.03 846 24.98 5 41 88 3.2 37.8
14:10 1017 30.03 846 24.98 4.8 40.7 89 3.1 37.6
14:15 1017 30.03 846 24.98 4.6 40.4 88 2.9 37.2
14:20 1017 30.03 846 24.98 4.4 39.9 88 2.6 36.7
14:25 1017 30.03 847 25.01 4.4 39.9 90 3 37.3
14:30 1018 30.06 847 25.01 4.5 40.1 90 3 37.4
14:35 1018 30.06 847 25.01 4.7 40.4 91 3.3 38
14:40 1018 30.06 847 25.01 4.7 40.5 89 3 37.5
14:45 1018 30.06 847 25.01 4.7 40.5 88 2.9 37.2
14:50 1018 30.06 847 25.01 4.8 40.6 90 3.2 37.8
14:55 1018 30.06 847 25.01 4.9 40.8 88 3.1 37.6
15:00 1018 30.06 847 25.01 4.8 40.7 89 3.1 37.6
15:05 1018 30.06 847 25.01 5 40.9 89 3.3 37.9
15:10 1018 30.06 847 25.01 5.1 41.2 88 3.3 38
15:15 1018 30.06 847 25.01 5 41.1 89 3.3 38
15:20 1018 30.06 847 25.01 4.9 40.8 89 3.2 37.8
15:25 1018 30.06 848 25.04 4.8 40.7 89 3.2 37.7
15:30 1019 30.09 848 25.04 4.3 39.7 87 2.3 36.1
15:35 1019 30.09 848 25.04 3.5 38.3 89 1.9 35.4
15:40 1019 30.09 848 25.04 3.4 38 90 1.9 35.5
15:45 1019 30.09 848 25.04 2.8 37 92 1.5 34.8
15:50 1019 30.09 848 25.04 2 35.6 94 1.1 34
15:55 1019 30.09 848 25.04 1.9 35.4 95 1.2 34.1
16:00 1019 30.09 848 25.04 2.1 35.8 95 1.3 34.4
16:05 1019 30.09 848 25.04 2.2 36 95 1.5 34.7
16:10 1019 30.09 848 25.04 2.4 36.4 94 1.6 34.8
16:15 1019 30.09 848 25.04 2.7 36.8 93 1.7 35.1
16:20 1019 30.09 848 25.04 2.9 37.3 93 1.9 35.5
16:25 1019 30.09 848 25.04 3.1 37.7 92 2 35.5
16:30 1019 30.09 848 25.04 3.3 37.9 90 1.8 35.3
16:35 1019 30.09 848 25.04 3.3 37.9 90 1.7 35.1
16:40 1019 30.09 848 25.04 3.3 37.9 92 2 35.7
16:45 1019 30.09 848 25.04 3.2 37.8 91 1.8 35.3
16:50 1019 30.09 848 25.04 3.2 37.7 91 1.9 35.3
16:55 1019 30.09 848 25.04 3.2 37.7 91 1.9 35.3
17:00 1019 30.09 848 25.04 3.2 37.7 91 1.8 35.3
17:05 1019 30.09 848 25.04 3.3 38 91 2 35.7
17:10 1019 30.09 848 25.04 3.5 38.4 90 2.1 35.7
17:15 1019 30.09 848 25.04 3.6 38.6 91 2.3 36.1
17:20 1019 30.09 848 25.04 3.7 38.7 90 2.2 35.9
17:25 1019 30.09 848 25.04 3.8 38.9 90 2.4 36.3
17:30 1019 30.09 848 25.04 3.8 38.9 89 2.2 36
17:35 1019 30.09 848 25.04 3.9 39.1 88 2.1 35.8
17:40 1019 30.09 848 25.04 4 39.3 87 2.1 35.8
17:45 1019 30.09 848 25.04 4.3 39.8 86 2.2 35.9
17:50 1019 30.09 848 25.04 4.5 40.2 85 2.2 36
17:55 1019 30.09 848 25.04 4.6 40.4 86 2.4 36.4
18:00 1019 30.09 848 25.04 4.8 40.6 84 2.3 36.1
18:05 1019 30.09 848 25.04 5 41 84 2.5 36.5
18:10 1019 30.09 848 25.04 5.2 41.3 83 2.5 36.4
18:15 1019 30.09 848 25.04 5.3 41.5 82 2.5 36.5
18:20 1019 30.09 848 25.04 5.3 41.5 79 2 35.6
18:25 1019 30.09 848 25.04 5.3 41.6 79 2 35.6
18:30 1019 30.09 848 25.04 5.4 41.7 78 1.9 35.5
18:35 1019 30.09 848 25.04 5.5 42 78 2.1 35.7
18:40 1019 30.09 848 25.04 5.6 42 78 2 35.6
18:45 1019 30.09 848 25.04 5.6 42 80 2.3 36.2
18:50 1019 30.09 848 25.04 5.6 42 80 2.4 36.4
18:55 1019 30.09 848 25.04 5.5 41.9 80 2.3 36.1
19:00 1019 30.09 848 25.04 5.5 42 80 2.3 36.1
19:05 1018 30.06 848 25.04 5.5 42 78 1.9 35.5
19:10 1018 30.06 848 25.04 5.6 42 81 2.5 36.5
19:15 1018 30.06 847 25.01 5.7 42.2 81 2.7 36.9
19:20 1018 30.06 847 25.01 5.6 42.1 83 3 37.3
19:25 1018 30.06 847 25.01 5.7 42.2 81 2.7 36.8
19:30 1018 30.06 847 25.01 5.6 42.1 79 2.3 36.1
19:35 1018 30.06 847 25.01 5.4 41.8 79 2.1 35.8
19:40 1018 30.06 848 25.04 5.4 41.7 79 2.1 35.8
19:45 1018 30.06 848 25.04 5.5 41.9 82 2.7 36.9
19:50 1018 30.06 848 25.04 5.4 41.8 86 3.3 37.9
19:55 1018 30.06 848 25.04 5.1 41.2 87 3.1 37.6
20:00 1018 30.06 848 25.04 5.1 41.1 87 3.1 37.6
20:05 1018 30.06 848 25.04 5.1 41.2 88 3.3 38
20:10 1018 30.06 848 25.04 5.1 41.1 88 3.2 37.7
20:15 1019 30.09 848 25.04 5.1 41.1 88 3.3 37.9
20:20 1019 30.09 848 25.04 5.2 41.3 88 3.3 38
20:25 1019 30.09 848 25.04 5.5 41.9 86 3.3 37.9
20:30 1019 30.09 848 25.04 5.7 42.2 85 3.3 38
20:35 1019 30.09 848 25.04 5.7 42.2 83 3 37.3
20:40 1019 30.09 848 25.04 5.8 42.4 83 3.2 37.7
20:45 1019 30.09 848 25.04 5.8 42.4 83 3.2 37.7
20:50 1019 30.09 848 25.04 5.7 42.3 84 3.3 37.9
20:55 1019 30.09 849 25.07 5.6 42.2 82 2.9 37.2
21:00 1019 30.09 849 25.07 5.6 42 82 2.7 36.9
21:05 1019 30.09 849 25.07 5.5 41.9 82 2.6 36.7
21:10 1019 30.09 848 25.04 5.3 41.5 84 2.9 37.1
21:15 1019 30.09 848 25.04 4.9 40.8 86 2.7 36.9
21:20 1019 30.09 848 25.04 4.7 40.5 86 2.6 36.6
21:25 1019 30.09 848 25.04 4.8 40.6 87 2.8 37
21:30 1019 30.09 849 25.07 4.7 40.5 89 3 37.4
21:35 1019 30.09 849 25.07 4.7 40.4 87 2.7 36.8
21:40 1019 30.09 849 25.07 4.7 40.4 86 2.6 36.6
21:45 1020 30.12 849 25.07 4.7 40.5 86 2.5 36.5
21:50 1020 30.12 849 25.07 4.8 40.6 85 2.5 36.6
21:55 1020 30.12 849 25.07 4.8 40.7 86 2.7 36.8
22:00 1020 30.12 849 25.07 4.9 40.8 87 2.9 37.2
22:05 1020 30.12 849 25.07 4.8 40.6 87 2.8 37.1
22:10 1020 30.12 849 25.07 4.9 40.8 89 3.2 37.7
22:15 1020 30.12 849 25.07 5 40.9 89 3.3 38
22:20 1020 30.12 849 25.07 4.8 40.7 90 3.3 37.9
22:25 1020 30.12 849 25.07 4.5 40.1 90 3 37.4
22:30 1020 30.12 849 25.07 4.5 40.1 88 2.8 37
22:35 1020 30.12 849 25.07 4.5 40.2 87 2.5 36.5
22:40 1020 30.12 850 25.1 4.5 40.1 86 2.3 36.2
22:45 1021 30.15 850 25.1 4.4 40 84 2 35.6
22:50 1021 30.15 850 25.1 4.4 39.8 85 2.1 35.8
22:55 1021 30.15 850 25.1 4.2 39.6 87 2.3 36.1
23:00 1021 30.15 850 25.1 4.1 39.5 88 2.3 36.2
23:05 1021 30.15 850 25.1 4.2 39.5 89 2.5 36.5
23:10 1021 30.15 850 25.1 4.1 39.4 87 2.2 35.9
23:15 1021 30.15 850 25.1 3.9 39.1 88 2.2 36
23:20 1021 30.15 850 25.1 3.9 39 89 2.3 36.1
23:25 1021 30.15 850 25.1 3.8 38.8 91 2.5 36.5
23:30 1021 30.15 850 25.1 3.7 38.7 90 2.3 36.1
23:35 1021 30.15 850 25.1 3.7 38.6 92 2.5 36.5
23:40 1021 30.15 850 25.1 3.7 38.7 93 2.6 36.7
23:45 1021 30.15 850 25.1 3.6 38.4 93 2.5 36.4
23:50 1021 30.15 850 25.1 3.4 38.2 92 2.3 36.2
23:55 1021 30.15 850 25.1 3.2 37.8 93 2.2 36
24:00 1021 30.15 850 25.1 3.1 37.6 93 2.1 35.9